createdAt,value
2022-10-11T00:00:00.310Z,101797
2022-10-11T00:01:00.341Z,101797
2022-10-11T00:02:00.262Z,101793
2022-10-11T00:03:00.870Z,101793
2022-10-11T00:04:00.277Z,101793
2022-10-11T00:05:00.294Z,101793
2022-10-11T00:06:00.324Z,101793
2022-10-11T00:07:00.295Z,101802
2022-10-11T00:08:00.295Z,101802
2022-10-11T00:09:00.335Z,101802
2022-10-11T00:10:00.284Z,101802
2022-10-11T00:11:01.880Z,101802
2022-10-11T00:12:00.286Z,101798
2022-10-11T00:13:00.313Z,101798
2022-10-11T00:14:00.310Z,101798
2022-10-11T00:15:00.298Z,101798
2022-10-11T00:16:00.444Z,101798
2022-10-11T00:17:00.287Z,101792
2022-10-11T00:18:05.109Z,101792
2022-10-11T00:19:00.267Z,101792
2022-10-11T00:20:00.346Z,101792
2022-10-11T00:21:01.381Z,101792
2022-10-11T00:22:00.295Z,101799
2022-10-11T00:23:00.262Z,101799
2022-10-11T00:24:00.272Z,101799
2022-10-11T00:25:00.337Z,101799
2022-10-11T00:26:01.834Z,101799
2022-10-11T00:27:00.275Z,101801
2022-10-11T00:28:00.275Z,101801
2022-10-11T00:29:00.273Z,101801
2022-10-11T00:30:00.466Z,101801
2022-10-11T00:31:00.320Z,101801
2022-10-11T00:32:00.299Z,101808
2022-10-11T00:33:00.278Z,101808
2022-10-11T00:34:00.275Z,101808
2022-10-11T00:35:00.391Z,101808
2022-10-11T00:36:00.435Z,101808
2022-10-11T00:37:00.286Z,101811
2022-10-11T00:38:00.287Z,101811
2022-10-11T00:39:00.803Z,101811
2022-10-11T00:40:00.664Z,101811
2022-10-11T00:41:00.305Z,101811
2022-10-11T00:42:00.304Z,101817
2022-10-11T00:43:00.360Z,101817
2022-10-11T00:44:10.186Z,101817
2022-10-11T00:45:10.197Z,101817
2022-10-11T00:46:02.518Z,101817
2022-10-11T00:47:02.074Z,101815
2022-10-11T00:48:03.617Z,101815
2022-10-11T00:49:03.759Z,101815
2022-10-11T00:50:00.616Z,101815
2022-10-11T00:51:01.979Z,101815
2022-10-11T00:52:06.163Z,101832
2022-10-11T00:53:01.992Z,101832
2022-10-11T00:54:01.021Z,101832
2022-10-11T00:55:04.022Z,101832
2022-10-11T00:56:03.535Z,101832
2022-10-11T00:57:03.257Z,101831
2022-10-11T00:58:00.336Z,101831
2022-10-11T00:59:02.753Z,101831
2022-10-11T01:00:00.720Z,101831
2022-10-11T01:01:00.408Z,101831
2022-10-11T01:02:00.513Z,101825
2022-10-11T01:03:00.363Z,101825
2022-10-11T01:04:00.806Z,101825
2022-10-11T01:05:25.217Z,101825
2022-10-11T01:06:00.275Z,101825
2022-10-11T01:07:00.994Z,101825
2022-10-11T01:08:01.491Z,101825
2022-10-11T01:09:00.271Z,101825
2022-10-11T01:10:00.311Z,101825
2022-10-11T01:11:01.553Z,101825
2022-10-11T01:12:01.885Z,101821
2022-10-11T01:13:08.005Z,101821
2022-10-11T01:14:10.188Z,101821
2022-10-11T01:15:07.161Z,101821
2022-10-11T01:16:09.566Z,101821
2022-10-11T01:17:10.171Z,101819
2022-10-11T01:18:09.488Z,101819
2022-10-11T01:19:10.175Z,101819
2022-10-11T01:20:10.191Z,101819
2022-10-11T01:21:04.522Z,101819
2022-10-11T01:22:10.195Z,101816
2022-10-11T01:23:01.281Z,101816
2022-10-11T01:24:08.209Z,101816
2022-10-11T01:25:10.180Z,101816
2022-10-11T01:26:10.170Z,101816
2022-10-11T01:27:01.251Z,101828
2022-10-11T01:28:10.233Z,101828
2022-10-11T01:29:10.189Z,101828
2022-10-11T01:30:00.244Z,101828
2022-10-11T01:31:05.250Z,101828
2022-10-11T01:32:05.320Z,101816
2022-10-11T01:33:01.290Z,101816
2022-10-11T01:34:03.292Z,101816
2022-10-11T01:35:00.258Z,101816
2022-10-11T01:36:01.639Z,101816
2022-10-11T01:37:08.804Z,101812
2022-10-11T01:38:10.196Z,101812
2022-10-11T01:39:08.879Z,101812
2022-10-11T01:40:10.199Z,101812
2022-10-11T01:41:05.367Z,101812
2022-10-11T01:42:02.011Z,101812
2022-10-11T01:43:01.511Z,101812
2022-10-11T01:44:01.186Z,101812
2022-10-11T01:45:00.906Z,101812
2022-10-11T01:46:02.098Z,101812
2022-10-11T01:47:00.319Z,101816
2022-10-11T01:48:02.326Z,101816
2022-10-11T01:49:01.533Z,101816
2022-10-11T01:50:00.947Z,101816
2022-10-11T01:51:02.116Z,101816
2022-10-11T01:52:03.829Z,101801
2022-10-11T01:53:05.016Z,101801
2022-10-11T01:54:10.181Z,101801
2022-10-11T01:55:10.575Z,101801
2022-10-11T01:56:10.181Z,101801
2022-10-11T01:57:10.182Z,101805
2022-10-11T01:58:07.973Z,101805
2022-10-11T01:59:03.603Z,101805
2022-10-11T02:00:10.037Z,101805
2022-10-11T02:01:10.203Z,101805
2022-10-11T02:02:01.285Z,101803
2022-10-11T02:03:05.051Z,101803
2022-10-11T02:04:03.652Z,101803
2022-10-11T02:05:00.259Z,101803
2022-10-11T02:06:09.106Z,101803
2022-10-11T02:07:05.566Z,101788
2022-10-11T02:08:01.333Z,101788
2022-10-11T02:09:04.476Z,101788
2022-10-11T02:10:10.172Z,101788
2022-10-11T02:11:00.254Z,101788
2022-10-11T02:12:04.673Z,101794
2022-10-11T02:13:10.186Z,101794
2022-10-11T02:14:10.168Z,101794
2022-10-11T02:15:02.857Z,101794
2022-10-11T02:16:02.120Z,101794
2022-10-11T02:17:02.235Z,101790
2022-10-11T02:18:01.616Z,101790
2022-10-11T02:19:03.345Z,101790
2022-10-11T02:20:02.665Z,101790
2022-10-11T02:21:01.277Z,101790
2022-10-11T02:22:02.990Z,101784
2022-10-11T02:23:07.209Z,101784
2022-10-11T02:24:04.052Z,101784
2022-10-11T02:25:03.993Z,101784
2022-10-11T02:26:03.032Z,101784
2022-10-11T02:27:02.061Z,101786
2022-10-11T02:28:02.443Z,101786
2022-10-11T02:29:01.898Z,101786
2022-10-11T02:30:01.496Z,101786
2022-10-11T02:31:02.010Z,101786
2022-10-11T02:32:00.944Z,101791
2022-10-11T02:33:02.718Z,101791
2022-10-11T02:34:10.190Z,101791
2022-10-11T02:35:01.035Z,101791
2022-10-11T02:36:04.973Z,101791
2022-10-11T02:37:04.837Z,101788
2022-10-11T02:38:10.177Z,101788
2022-10-11T02:39:06.055Z,101788
2022-10-11T02:40:03.929Z,101788
2022-10-11T02:41:08.953Z,101788
2022-10-11T02:42:02.246Z,101786
2022-10-11T02:43:03.560Z,101786
2022-10-11T02:44:10.177Z,101786
2022-10-11T02:45:04.120Z,101786
2022-10-11T02:46:01.091Z,101786
2022-10-11T02:47:00.804Z,101788
2022-10-11T02:48:00.805Z,101788
2022-10-11T02:49:00.935Z,101788
2022-10-11T02:50:00.336Z,101788
2022-10-11T02:51:01.186Z,101788
2022-10-11T02:52:02.442Z,101780
2022-10-11T02:53:00.297Z,101780
2022-10-11T02:54:00.265Z,101780
2022-10-11T02:55:00.287Z,101780
2022-10-11T02:56:00.270Z,101780
2022-10-11T02:57:00.352Z,101781
2022-10-11T02:58:00.538Z,101781
2022-10-11T02:59:00.272Z,101781
2022-10-11T03:00:00.506Z,101781
2022-10-11T03:01:00.542Z,101781
2022-10-11T03:02:00.406Z,101783
2022-10-11T03:03:00.299Z,101783
2022-10-11T03:04:00.277Z,101783
2022-10-11T03:05:00.414Z,101783
2022-10-11T03:06:01.457Z,101783
2022-10-11T03:07:00.275Z,101776
2022-10-11T03:08:00.285Z,101776
2022-10-11T03:09:00.257Z,101776
2022-10-11T03:10:00.274Z,101776
2022-10-11T03:11:00.254Z,101776
2022-10-11T03:12:00.411Z,101777
2022-10-11T03:13:07.314Z,101777
2022-10-11T03:14:00.386Z,101777
2022-10-11T03:15:00.401Z,101777
2022-10-11T03:16:04.426Z,101777
2022-10-11T03:17:17.315Z,101774
2022-10-11T03:18:00.411Z,101774
2022-10-11T03:19:00.280Z,101774
2022-10-11T03:20:00.279Z,101774
2022-10-11T03:21:00.313Z,101774
2022-10-11T03:22:00.265Z,101773
2022-10-11T03:23:00.305Z,101773
2022-10-11T03:24:00.320Z,101773
2022-10-11T03:25:04.129Z,101773
2022-10-11T03:26:00.339Z,101773
2022-10-11T03:27:00.286Z,101779
2022-10-11T03:28:00.268Z,101779
2022-10-11T03:29:00.270Z,101779
2022-10-11T03:30:00.378Z,101779
2022-10-11T03:31:00.282Z,101779
2022-10-11T03:32:00.272Z,101770
2022-10-11T03:33:00.272Z,101770
2022-10-11T03:34:00.274Z,101770
2022-10-11T03:35:00.334Z,101770
2022-10-11T03:36:00.313Z,101770
2022-10-11T03:37:00.256Z,101782
2022-10-11T03:38:00.324Z,101782
2022-10-11T03:39:00.270Z,101782
2022-10-11T03:40:00.280Z,101782
2022-10-11T03:41:00.259Z,101782
2022-10-11T03:42:00.277Z,101783
2022-10-11T03:43:00.267Z,101783
2022-10-11T03:44:00.374Z,101783
2022-10-11T03:45:00.361Z,101783
2022-10-11T03:46:00.267Z,101783
2022-10-11T03:47:00.305Z,101781
2022-10-11T03:48:00.269Z,101781
2022-10-11T03:49:00.286Z,101781
2022-10-11T03:50:00.542Z,101781
2022-10-11T03:51:00.347Z,101781
2022-10-11T03:52:00.318Z,101793
2022-10-11T03:53:00.280Z,101793
2022-10-11T03:54:00.481Z,101793
2022-10-11T03:55:00.295Z,101793
2022-10-11T03:56:04.605Z,101793
2022-10-11T03:57:00.266Z,101784
2022-10-11T03:58:00.564Z,101784
2022-10-11T03:59:00.261Z,101784
2022-10-11T04:00:01.197Z,101784
2022-10-11T04:01:00.318Z,101784
2022-10-11T04:02:00.420Z,101794
2022-10-11T04:03:00.324Z,101794
2022-10-11T04:04:00.264Z,101794
2022-10-11T04:05:00.527Z,101794
2022-10-11T04:06:00.268Z,101794
2022-10-11T04:07:00.276Z,101793
2022-10-11T04:08:00.271Z,101793
2022-10-11T04:09:00.437Z,101793
2022-10-11T04:10:00.323Z,101793
2022-10-11T04:11:00.289Z,101793
2022-10-11T04:12:00.261Z,101789
2022-10-11T04:13:00.404Z,101789
2022-10-11T04:14:01.052Z,101789
2022-10-11T04:15:00.452Z,101789
2022-10-11T04:16:00.279Z,101789
2022-10-11T04:17:00.724Z,101798
2022-10-11T04:18:00.397Z,101798
2022-10-11T04:19:00.417Z,101798
2022-10-11T04:20:00.626Z,101798
2022-10-11T04:21:00.269Z,101798
2022-10-11T04:22:00.473Z,101800
2022-10-11T04:23:00.415Z,101800
2022-10-11T04:24:00.340Z,101800
2022-10-11T04:25:00.280Z,101800
2022-10-11T04:26:03.789Z,101800
2022-10-11T04:27:00.343Z,101803
2022-10-11T04:28:00.294Z,101803
2022-10-11T04:29:00.276Z,101803
2022-10-11T04:30:00.322Z,101803
2022-10-11T04:31:00.335Z,101803
2022-10-11T04:32:00.301Z,101811
2022-10-11T04:33:00.279Z,101811
2022-10-11T04:34:00.289Z,101811
2022-10-11T04:35:00.273Z,101811
2022-10-11T04:36:00.293Z,101811
2022-10-11T04:37:00.279Z,101817
2022-10-11T04:38:00.263Z,101817
2022-10-11T04:39:00.280Z,101817
2022-10-11T04:40:00.556Z,101817
2022-10-11T04:41:08.085Z,101817
2022-10-11T04:42:00.267Z,101807
2022-10-11T04:43:00.443Z,101807
2022-10-11T04:44:01.287Z,101807
2022-10-11T04:45:00.295Z,101807
2022-10-11T04:46:00.340Z,101807
2022-10-11T04:47:00.304Z,101819
2022-10-11T04:48:00.309Z,101819
2022-10-11T04:49:00.263Z,101819
2022-10-11T04:50:00.394Z,101819
2022-10-11T04:51:00.325Z,101819
2022-10-11T04:52:00.320Z,101816
2022-10-11T04:53:00.397Z,101816
2022-10-11T04:54:00.297Z,101816
2022-10-11T04:55:00.282Z,101816
2022-10-11T04:56:01.738Z,101816
2022-10-11T04:57:00.285Z,101818
2022-10-11T04:58:00.277Z,101818
2022-10-11T04:59:00.333Z,101818
2022-10-11T05:00:00.358Z,101818
2022-10-11T05:01:00.266Z,101818
2022-10-11T05:02:00.281Z,101816
2022-10-11T05:03:00.288Z,101816
2022-10-11T05:04:00.269Z,101816
2022-10-11T05:05:00.322Z,101816
2022-10-11T05:06:04.656Z,101816
2022-10-11T05:07:00.269Z,101819
2022-10-11T05:08:00.278Z,101819
2022-10-11T05:09:00.255Z,101819
2022-10-11T05:10:00.361Z,101819
2022-10-11T05:11:01.586Z,101819
2022-10-11T05:12:00.346Z,101819
2022-10-11T05:13:00.269Z,101819
2022-10-11T05:14:00.324Z,101819
2022-10-11T05:15:00.553Z,101819
2022-10-11T05:16:00.720Z,101819
2022-10-11T05:17:00.282Z,101826
2022-10-11T05:18:00.292Z,101826
2022-10-11T05:19:00.274Z,101826
2022-10-11T05:20:00.289Z,101826
2022-10-11T05:21:00.275Z,101826
2022-10-11T05:22:00.269Z,101833
2022-10-11T05:23:00.285Z,101833
2022-10-11T05:24:00.281Z,101833
2022-10-11T05:25:00.569Z,101833
2022-10-11T05:26:01.033Z,101833
2022-10-11T05:27:03.327Z,101841
2022-10-11T05:28:00.383Z,101841
2022-10-11T05:29:00.356Z,101841
2022-10-11T05:30:00.347Z,101841
2022-10-11T05:31:00.270Z,101841
2022-10-11T05:32:00.300Z,101844
2022-10-11T05:33:00.276Z,101844
2022-10-11T05:34:00.266Z,101844
2022-10-11T05:35:00.285Z,101844
2022-10-11T05:36:00.315Z,101844
2022-10-11T05:37:00.282Z,101839
2022-10-11T05:38:00.270Z,101839
2022-10-11T05:39:00.292Z,101839
2022-10-11T05:40:00.290Z,101839
2022-10-11T05:41:01.387Z,101839
2022-10-11T05:42:00.268Z,101855
2022-10-11T05:43:00.298Z,101855
2022-10-11T05:44:00.276Z,101855
2022-10-11T05:45:00.423Z,101855
2022-10-11T05:46:00.275Z,101855
2022-10-11T05:47:00.305Z,101848
2022-10-11T05:48:00.270Z,101848
2022-10-11T05:49:00.265Z,101848
2022-10-11T05:50:00.276Z,101848
2022-10-11T05:51:01.494Z,101848
2022-10-11T05:52:00.275Z,101853
2022-10-11T05:53:00.571Z,101853
2022-10-11T05:54:00.271Z,101853
2022-10-11T05:55:00.265Z,101853
2022-10-11T05:56:00.311Z,101853
2022-10-11T05:57:00.287Z,101855
2022-10-11T05:58:00.333Z,101855
2022-10-11T05:59:02.510Z,101855
2022-10-11T06:00:00.383Z,101855
2022-10-11T06:01:00.387Z,101855
2022-10-11T06:02:00.260Z,101854
2022-10-11T06:03:00.318Z,101854
2022-10-11T06:04:00.275Z,101854
2022-10-11T06:05:00.258Z,101854
2022-10-11T06:06:01.562Z,101854
2022-10-11T06:07:00.247Z,101852
2022-10-11T06:08:00.860Z,101852
2022-10-11T06:09:00.304Z,101852
2022-10-11T06:10:00.272Z,101852
2022-10-11T06:11:11.904Z,101852
2022-10-11T06:12:00.721Z,101859
2022-10-11T06:13:00.351Z,101859
2022-10-11T06:14:00.284Z,101859
2022-10-11T06:15:00.849Z,101859
2022-10-11T06:16:04.076Z,101859
2022-10-11T06:17:01.073Z,101852
2022-10-11T06:18:26.382Z,101852
2022-10-11T06:19:00.472Z,101852
2022-10-11T06:20:00.586Z,101852
2022-10-11T06:21:05.000Z,101852
2022-10-11T06:22:00.317Z,101847
2022-10-11T06:23:00.464Z,101847
2022-10-11T06:24:03.819Z,101847
2022-10-11T06:28:00.373Z,101856
2022-10-11T06:29:00.463Z,101856
2022-10-11T06:30:00.305Z,101856
2022-10-11T06:31:02.068Z,101856
2022-10-11T06:32:00.596Z,101853
2022-10-11T06:33:04.592Z,101853
2022-10-11T06:34:00.580Z,101853
2022-10-11T06:35:00.307Z,101853
2022-10-11T06:36:03.031Z,101853
2022-10-11T06:37:00.302Z,101863
2022-10-11T06:38:00.284Z,101863
2022-10-11T06:39:00.370Z,101863
2022-10-11T06:40:00.326Z,101863
2022-10-11T06:41:10.176Z,101863
2022-10-11T06:42:00.370Z,101860
2022-10-11T06:43:00.276Z,101860
2022-10-11T06:44:00.275Z,101860
2022-10-11T06:45:00.310Z,101860
2022-10-11T06:46:00.286Z,101860
2022-10-11T06:47:00.359Z,101866
2022-10-11T06:48:00.295Z,101866
2022-10-11T06:49:00.277Z,101866
2022-10-11T06:50:00.332Z,101866
2022-10-11T06:51:00.730Z,101866
2022-10-11T06:52:00.337Z,101872
2022-10-11T06:53:00.284Z,101872
2022-10-11T06:54:00.649Z,101872
2022-10-11T06:55:00.296Z,101872
2022-10-11T06:56:03.160Z,101872
2022-10-11T06:57:00.279Z,101878
2022-10-11T06:58:00.342Z,101878
2022-10-11T06:59:00.282Z,101878
2022-10-11T07:00:00.409Z,101878
2022-10-11T07:01:00.821Z,101878
2022-10-11T07:02:00.281Z,101875
2022-10-11T07:03:00.276Z,101875
2022-10-11T07:04:00.263Z,101875
2022-10-11T07:05:00.304Z,101875
2022-10-11T07:06:02.551Z,101875
2022-10-11T07:07:00.288Z,101879
2022-10-11T07:08:00.660Z,101879
2022-10-11T07:09:00.290Z,101879
2022-10-11T07:10:00.307Z,101879
2022-10-11T07:11:02.527Z,101879
2022-10-11T07:12:00.281Z,101886
2022-10-11T07:13:00.274Z,101886
2022-10-11T07:14:04.478Z,101886
2022-10-11T07:15:00.476Z,101886
2022-10-11T07:16:01.105Z,101886
2022-10-11T07:17:00.377Z,101885
2022-10-11T07:18:00.634Z,101885
2022-10-11T07:19:01.481Z,101885
2022-10-11T07:20:00.290Z,101885
2022-10-11T07:21:02.173Z,101885
2022-10-11T07:22:00.319Z,101897
2022-10-11T07:23:00.314Z,101897
2022-10-11T07:24:00.579Z,101897
2022-10-11T07:25:00.392Z,101897
2022-10-11T07:26:00.501Z,101897
2022-10-11T07:27:00.297Z,101892
2022-10-11T07:28:00.287Z,101892
2022-10-11T07:29:00.402Z,101892
2022-10-11T07:30:00.290Z,101892
2022-10-11T07:31:09.212Z,101892
2022-10-11T07:32:00.613Z,101900
2022-10-11T07:33:00.310Z,101900
2022-10-11T07:34:00.278Z,101900
2022-10-11T07:35:00.311Z,101900
2022-10-11T07:36:00.307Z,101900
2022-10-11T07:37:00.273Z,101904
2022-10-11T07:38:00.387Z,101904
2022-10-11T07:39:02.497Z,101904
2022-10-11T07:40:00.306Z,101904
2022-10-11T07:41:03.545Z,101904
2022-10-11T07:42:00.294Z,101902
2022-10-11T07:43:00.272Z,101902
2022-10-11T07:44:00.268Z,101902
2022-10-11T07:45:00.318Z,101902
2022-10-11T07:46:00.397Z,101902
2022-10-11T07:47:00.291Z,101907
2022-10-11T07:48:00.273Z,101907
2022-10-11T07:49:00.331Z,101907
2022-10-11T07:50:00.277Z,101907
2022-10-11T07:51:06.785Z,101907
2022-10-11T07:52:00.272Z,101911
2022-10-11T07:53:00.333Z,101911
2022-10-11T07:54:06.849Z,101911
2022-10-11T07:55:00.294Z,101911
2022-10-11T07:56:00.351Z,101911
2022-10-11T07:57:00.301Z,101910
2022-10-11T07:58:00.288Z,101910
2022-10-11T07:59:00.872Z,101910
2022-10-11T08:00:00.488Z,101910
2022-10-11T08:01:00.350Z,101910
2022-10-11T08:02:00.493Z,101907
2022-10-11T08:03:01.598Z,101907
2022-10-11T08:04:00.465Z,101907
2022-10-11T08:05:00.349Z,101907
2022-10-11T08:06:01.216Z,101907
2022-10-11T08:07:00.281Z,101910
2022-10-11T08:08:00.333Z,101910
2022-10-11T08:09:00.295Z,101910
2022-10-11T08:10:00.328Z,101910
2022-10-11T08:11:00.465Z,101910
2022-10-11T08:12:00.287Z,101908
2022-10-11T08:13:04.286Z,101908
2022-10-11T08:14:00.938Z,101908
2022-10-11T08:15:00.434Z,101908
2022-10-11T08:16:00.537Z,101908
2022-10-11T08:17:00.579Z,101906
2022-10-11T08:18:00.328Z,101906
2022-10-11T08:19:00.575Z,101906
2022-10-11T08:20:00.538Z,101906
2022-10-11T08:21:04.417Z,101906
2022-10-11T08:22:00.391Z,101903
2022-10-11T08:23:00.281Z,101903
2022-10-11T08:24:01.147Z,101903
2022-10-11T08:25:00.295Z,101903
2022-10-11T08:26:00.499Z,101903
2022-10-11T08:27:00.265Z,101906
2022-10-11T08:28:00.284Z,101906
2022-10-11T08:29:00.379Z,101906
2022-10-11T08:30:00.309Z,101906
2022-10-11T08:31:00.631Z,101906
2022-10-11T08:32:00.341Z,101909
2022-10-11T08:33:02.187Z,101909
2022-10-11T08:34:00.308Z,101909
2022-10-11T08:35:00.316Z,101909
2022-10-11T08:36:03.526Z,101909
2022-10-11T08:37:00.286Z,101905
2022-10-11T08:38:00.311Z,101905
2022-10-11T08:39:00.660Z,101905
2022-10-11T08:40:00.354Z,101905
2022-10-11T08:41:00.375Z,101905
2022-10-11T08:42:01.324Z,101903
2022-10-11T08:43:03.493Z,101903
2022-10-11T08:44:00.290Z,101903
2022-10-11T08:45:11.132Z,101903
2022-10-11T08:46:02.567Z,101903
2022-10-11T08:47:05.214Z,101900
2022-10-11T08:48:04.283Z,101900
2022-10-11T08:49:00.739Z,101900
2022-10-11T08:50:00.488Z,101900
2022-10-11T08:51:01.570Z,101900
2022-10-11T08:52:01.450Z,101907
2022-10-11T08:53:05.056Z,101907
2022-10-11T08:54:07.764Z,101907
2022-10-11T08:55:05.386Z,101907
2022-10-11T08:56:01.110Z,101907
2022-10-11T08:57:02.896Z,101900
2022-10-11T08:58:01.005Z,101900
2022-10-11T08:59:05.654Z,101900
2022-10-11T09:00:05.646Z,101900
2022-10-11T09:01:01.003Z,101900
2022-10-11T09:02:05.953Z,101900
2022-10-11T09:03:10.240Z,101900
2022-10-11T09:04:00.325Z,101900
2022-10-11T09:05:01.223Z,101900
2022-10-11T09:06:05.867Z,101900
2022-10-11T09:07:04.569Z,101911
2022-10-11T09:08:05.693Z,101911
2022-10-11T09:09:10.188Z,101911
2022-10-11T09:10:00.265Z,101911
2022-10-11T09:11:00.296Z,101911
2022-10-11T09:12:10.194Z,101908
2022-10-11T09:13:01.292Z,101908
2022-10-11T09:14:03.548Z,101908
2022-10-11T09:15:03.576Z,101908
2022-10-11T09:16:10.186Z,101908
2022-10-11T09:17:03.537Z,101908
2022-10-11T09:18:03.622Z,101908
2022-10-11T09:19:10.173Z,101908
2022-10-11T09:20:10.205Z,101908
2022-10-11T09:21:00.265Z,101908
2022-10-11T09:22:07.366Z,101918
2022-10-11T09:23:03.857Z,101918
2022-10-11T09:24:00.287Z,101918
2022-10-11T09:25:10.182Z,101918
2022-10-11T09:26:04.782Z,101918
2022-10-11T09:27:04.058Z,101918
2022-10-11T09:28:03.272Z,101918
2022-10-11T09:29:03.599Z,101918
2022-10-11T09:30:03.566Z,101918
2022-10-11T09:31:00.389Z,101918
2022-10-11T09:32:00.370Z,101921
2022-10-11T09:33:07.826Z,101921
2022-10-11T09:34:09.012Z,101921
2022-10-11T09:35:09.593Z,101921
2022-10-11T09:36:01.167Z,101921
2022-10-11T09:37:10.172Z,101921
2022-10-11T09:38:04.697Z,101921
2022-10-11T09:39:10.191Z,101921
2022-10-11T09:40:05.004Z,101921
2022-10-11T09:41:03.593Z,101921
2022-10-11T09:42:01.466Z,101922
2022-10-11T09:43:00.288Z,101922
2022-10-11T09:44:00.367Z,101922
2022-10-11T09:45:00.817Z,101922
2022-10-11T09:46:00.314Z,101922
2022-10-11T09:47:00.284Z,101925
2022-10-11T09:48:01.194Z,101925
2022-10-11T09:49:01.663Z,101925
2022-10-11T09:50:00.266Z,101925
2022-10-11T09:51:04.153Z,101925
2022-10-11T09:52:01.931Z,101928
2022-10-11T09:53:03.037Z,101928
2022-10-11T09:54:01.540Z,101928
2022-10-11T09:55:01.317Z,101928
2022-10-11T09:56:02.118Z,101928
2022-10-11T09:57:00.311Z,101936
2022-10-11T09:58:00.559Z,101936
2022-10-11T09:59:10.163Z,101936
2022-10-11T10:00:03.991Z,101936
2022-10-11T10:01:07.920Z,101936
2022-10-11T10:02:10.215Z,101927
2022-10-11T10:03:01.585Z,101927
2022-10-11T10:04:10.188Z,101927
2022-10-11T10:05:07.821Z,101927
2022-10-11T10:06:05.065Z,101927
2022-10-11T10:07:09.158Z,101924
2022-10-11T10:08:04.829Z,101924
2022-10-11T10:09:10.177Z,101924
2022-10-11T10:10:10.197Z,101924
2022-10-11T10:11:02.407Z,101924
2022-10-11T10:12:09.939Z,101922
2022-10-11T10:13:01.943Z,101922
2022-10-11T10:14:00.338Z,101922
2022-10-11T10:15:10.203Z,101922
2022-10-11T10:16:00.353Z,101922
2022-10-11T10:17:02.257Z,101919
2022-10-11T10:18:00.915Z,101919
2022-10-11T10:19:10.182Z,101919
2022-10-11T10:20:00.609Z,101919
2022-10-11T10:21:00.629Z,101919
2022-10-11T10:22:00.403Z,101907
2022-10-11T10:23:06.196Z,101907
2022-10-11T10:24:04.160Z,101907
2022-10-11T10:25:01.725Z,101907
2022-10-11T10:26:10.202Z,101907
2022-10-11T10:27:10.179Z,101917
2022-10-11T10:28:02.691Z,101917
2022-10-11T10:29:03.542Z,101917
2022-10-11T10:30:00.290Z,101917
2022-10-11T10:31:00.341Z,101917
2022-10-11T10:32:15.166Z,101913
2022-10-11T10:33:04.752Z,101913
2022-10-11T10:34:00.636Z,101913
2022-10-11T10:35:10.227Z,101913
2022-10-11T10:36:00.262Z,101913
2022-10-11T10:37:10.198Z,101909
2022-10-11T10:38:10.183Z,101909
2022-10-11T10:39:10.165Z,101909
2022-10-11T10:40:04.676Z,101909
2022-10-11T10:41:01.833Z,101909
2022-10-11T10:42:02.533Z,101907
2022-10-11T10:43:00.399Z,101907
2022-10-11T10:44:00.458Z,101907
2022-10-11T10:45:00.343Z,101907
2022-10-11T10:46:01.283Z,101907
2022-10-11T10:47:00.271Z,101902
2022-10-11T10:48:01.293Z,101902
2022-10-11T10:49:52.005Z,101902
2022-10-11T10:50:05.670Z,101902
2022-10-11T10:51:07.147Z,101902
2022-10-11T10:52:10.181Z,101892
2022-10-11T10:53:10.185Z,101892
2022-10-11T10:54:10.173Z,101892
2022-10-11T10:55:00.273Z,101892
2022-10-11T10:56:10.176Z,101892
2022-10-11T10:57:03.064Z,101893
2022-10-11T10:58:03.557Z,101893
2022-10-11T10:59:00.300Z,101893
2022-10-11T11:00:04.725Z,101893
2022-10-11T11:01:04.907Z,101893
2022-10-11T11:02:28.057Z,101892
2022-10-11T11:03:04.596Z,101892
2022-10-11T11:04:10.194Z,101892
2022-10-11T11:05:01.292Z,101892
2022-10-11T11:06:01.972Z,101892
2022-10-11T11:07:10.169Z,101885
2022-10-11T11:08:10.191Z,101885
2022-10-11T11:09:03.536Z,101885
2022-10-11T11:10:02.527Z,101885
2022-10-11T11:11:10.203Z,101885
2022-10-11T11:12:10.163Z,101883
2022-10-11T11:13:10.203Z,101883
2022-10-11T11:14:00.281Z,101883
2022-10-11T11:15:10.212Z,101883
2022-10-11T11:16:01.282Z,101883
2022-10-11T11:17:10.185Z,101872
2022-10-11T11:18:10.178Z,101872
2022-10-11T11:19:10.189Z,101872
2022-10-11T11:20:07.669Z,101872
2022-10-11T11:21:10.176Z,101872
2022-10-11T11:22:09.995Z,101874
2022-10-11T11:23:01.291Z,101874
2022-10-11T11:24:07.663Z,101874
2022-10-11T11:25:00.268Z,101874
2022-10-11T11:26:07.809Z,101874
2022-10-11T11:27:01.289Z,101871
2022-10-11T11:28:01.323Z,101871
2022-10-11T11:29:01.294Z,101871
2022-10-11T11:30:00.311Z,101871
2022-10-11T11:31:00.274Z,101871
2022-10-11T11:32:10.198Z,101867
2022-10-11T11:33:10.190Z,101867
2022-10-11T11:34:10.191Z,101867
2022-10-11T11:35:02.741Z,101867
2022-10-11T11:36:04.595Z,101867
2022-10-11T11:37:05.442Z,101867
2022-10-11T11:38:06.402Z,101867
2022-10-11T11:39:01.690Z,101867
2022-10-11T11:40:10.207Z,101867
2022-10-11T11:41:03.089Z,101867
2022-10-11T11:42:04.228Z,101868
2022-10-11T11:43:06.115Z,101868
2022-10-11T11:44:10.198Z,101868
2022-10-11T11:45:04.677Z,101868
2022-10-11T11:46:03.976Z,101868
2022-10-11T11:47:02.831Z,101855
2022-10-11T11:48:00.263Z,101855
2022-10-11T11:49:08.540Z,101855
2022-10-11T11:50:10.191Z,101855
2022-10-11T11:51:00.296Z,101855
2022-10-11T11:52:00.788Z,101858
2022-10-11T11:53:02.880Z,101858
2022-10-11T11:54:00.265Z,101858
2022-10-11T11:55:08.261Z,101858
2022-10-11T11:56:02.946Z,101858
2022-10-11T11:57:07.762Z,101855
2022-10-11T11:58:04.579Z,101855
2022-10-11T11:59:01.296Z,101855
2022-10-11T12:00:05.105Z,101855
2022-10-11T12:01:10.207Z,101855
2022-10-11T12:02:10.242Z,101852
2022-10-11T12:03:02.881Z,101852
2022-10-11T12:04:03.406Z,101852
2022-10-11T12:05:00.370Z,101852
2022-10-11T12:06:10.188Z,101852
2022-10-11T12:07:15.816Z,101849
2022-10-11T12:08:04.069Z,101849
2022-10-11T12:09:01.316Z,101849
2022-10-11T12:10:10.207Z,101849
2022-10-11T12:11:00.859Z,101849
2022-10-11T12:12:02.672Z,101850
2022-10-11T12:13:06.633Z,101850
2022-10-11T12:14:00.335Z,101850
2022-10-11T12:15:07.626Z,101850
2022-10-11T12:16:07.021Z,101850
2022-10-11T12:17:10.194Z,101839
2022-10-11T12:18:02.834Z,101839
2022-10-11T12:19:02.054Z,101839
2022-10-11T12:20:07.641Z,101839
2022-10-11T12:21:02.401Z,101839
2022-10-11T12:22:10.183Z,101844
2022-10-11T12:23:04.221Z,101844
2022-10-11T12:24:10.181Z,101844
2022-10-11T12:25:07.690Z,101844
2022-10-11T12:26:10.205Z,101844
2022-10-11T12:27:10.244Z,101837
2022-10-11T12:28:01.831Z,101837
2022-10-11T12:29:03.544Z,101837
2022-10-11T12:30:00.298Z,101837
2022-10-11T12:31:05.180Z,101837